sensor_id;sensor_type;location;lat;lon;timestamp;noise_LAeq;noise_LA_min;noise_LA_max;noise_LA01;noise_LA95
66589;Laerm;53447;49.272;11.070;2023-12-20T00:02:15;42.12;39.88;43.26;;
66589;Laerm;53447;49.272;11.070;2023-12-20T00:04:41;42.11;38.73;43.95;;
66589;Laerm;53447;49.272;11.070;2023-12-20T00:07:06;40.70;38.20;42.61;;
66589;Laerm;53447;49.272;11.070;2023-12-20T00:09:31;40.70;38.31;42.69;;
66589;Laerm;53447;49.272;11.070;2023-12-20T00:11:56;40.96;37.58;43.19;;
66589;Laerm;53447;49.272;11.070;2023-12-20T00:14:22;40.73;37.84;42.65;;
66589;Laerm;53447;49.272;11.070;2023-12-20T00:16:47;40.66;37.71;42.77;;
66589;Laerm;53447;49.272;11.070;2023-12-20T00:19:12;40.71;38.20;44.80;;
66589;Laerm;53447;49.272;11.070;2023-12-20T00:21:37;41.26;38.93;46.86;;
66589;Laerm;53447;49.272;11.070;2023-12-20T00:24:03;41.02;38.73;46.92;;
66589;Laerm;53447;49.272;11.070;2023-12-20T00:26:28;41.42;39.12;50.57;;
66589;Laerm;53447;49.272;11.070;2023-12-20T00:28:53;41.72;38.93;52.19;;
66589;Laerm;53447;49.272;11.070;2023-12-20T00:31:18;41.35;39.30;47.04;;
66589;Laerm;53447;49.272;11.070;2023-12-20T00:33:44;41.11;38.93;48.62;;
66589;Laerm;53447;49.272;11.070;2023-12-20T00:36:11;41.11;38.20;46.07;;
66589;Laerm;53447;49.272;11.070;2023-12-20T00:38:36;41.57;38.63;46.35;;
66589;Laerm;53447;49.272;11.070;2023-12-20T00:41:01;42.32;40.18;43.83;;
66589;Laerm;53447;49.272;11.070;2023-12-20T00:43:27;41.89;35.19;43.37;;
66589;Laerm;53447;49.272;11.070;2023-12-20T00:45:52;41.35;36.55;42.65;;
66589;Laerm;53447;49.272;11.070;2023-12-20T00:48:18;41.42;39.56;45.28;;
66589;Laerm;53447;49.272;11.070;2023-12-20T00:50:43;41.62;38.73;43.61;;
66589;Laerm;53447;49.272;11.070;2023-12-20T00:53:08;41.74;39.80;44.57;;
66589;Laerm;53447;49.272;11.070;2023-12-20T00:55:33;41.63;38.08;43.86;;
66589;Laerm;53447;49.272;11.070;2023-12-20T00:57:58;41.59;39.80;46.84;;
66589;Laerm;53447;49.272;11.070;2023-12-20T01:00:25;41.40;35.19;42.61;;
66589;Laerm;53447;49.272;11.070;2023-12-20T01:02:50;41.45;37.71;42.65;;
66589;Laerm;53447;49.272;11.070;2023-12-20T01:05:16;41.30;35.41;46.13;;
66589;Laerm;53447;49.272;11.070;2023-12-20T01:07:42;41.40;36.55;45.78;;
66589;Laerm;53447;49.272;11.070;2023-12-20T01:10:07;41.52;38.42;45.55;;
66589;Laerm;53447;49.272;11.070;2023-12-20T01:12:33;41.97;36.87;43.61;;
66589;Laerm;53447;49.272;11.070;2023-12-20T01:14:58;42.50;38.63;52.36;;
66589;Laerm;53447;49.272;11.070;2023-12-20T01:17:23;42.42;38.42;55.16;;
66589;Laerm;53447;49.272;11.070;2023-12-20T01:19:48;48.90;39.30;66.53;;
66589;Laerm;53447;49.272;11.070;2023-12-20T01:22:14;41.77;37.45;50.74;;
66589;Laerm;53447;49.272;11.070;2023-12-20T01:24:39;42.11;39.48;51.83;;
66589;Laerm;53447;49.272;11.070;2023-12-20T01:27:04;41.68;39.30;47.14;;
66589;Laerm;53447;49.272;11.070;2023-12-20T01:29:29;42.01;37.71;45.02;;
66589;Laerm;53447;49.272;11.070;2023-12-20T01:31:54;41.44;36.20;44.55;;
66589;Laerm;53447;49.272;11.070;2023-12-20T01:34:20;41.54;38.63;47.20;;
66589;Laerm;53447;49.272;11.070;2023-12-20T01:36:45;41.59;38.93;47.23;;
66589;Laerm;53447;49.272;11.070;2023-12-20T01:39:10;41.73;39.88;49.73;;
66589;Laerm;53447;49.272;11.070;2023-12-20T01:41:36;42.34;39.96;52.32;;
66589;Laerm;53447;49.272;11.070;2023-12-20T01:44:01;41.91;40.03;48.63;;
66589;Laerm;53447;49.272;11.070;2023-12-20T01:46:26;41.70;36.20;51.33;;
66589;Laerm;53447;49.272;11.070;2023-12-20T01:48:51;41.69;39.03;44.52;;
66589;Laerm;53447;49.272;11.070;2023-12-20T01:51:17;41.92;38.20;43.89;;
66589;Laerm;53447;49.272;11.070;2023-12-20T01:53:43;42.48;41.03;47.90;;
66589;Laerm;53447;49.272;11.070;2023-12-20T01:56:08;42.37;37.37;46.63;;
66589;Laerm;53447;49.272;11.070;2023-12-20T01:58:35;41.97;38.31;48.05;;
66589;Laerm;53447;49.272;11.070;2023-12-20T02:01:03;41.71;38.20;42.93;;
66589;Laerm;53447;49.272;11.070;2023-12-20T02:03:28;41.64;35.41;48.28;;
66589;Laerm;53447;49.272;11.070;2023-12-20T02:05:53;41.63;40.11;42.89;;
66589;Laerm;53447;49.272;11.070;2023-12-20T02:08:19;41.58;39.21;46.87;;
66589;Laerm;53447;49.272;11.070;2023-12-20T02:10:44;41.55;37.31;42.73;;
66589;Laerm;53447;49.272;11.070;2023-12-20T02:13:10;41.49;36.38;42.92;;
66589;Laerm;53447;49.272;11.070;2023-12-20T02:15:35;41.55;37.10;43.12;;
66589;Laerm;53447;49.272;11.070;2023-12-20T02:18:02;42.13;35.82;46.09;;
66589;Laerm;53447;49.272;11.070;2023-12-20T02:20:27;42.63;40.59;45.72;;
66589;Laerm;53447;49.272;11.070;2023-12-20T02:22:52;42.67;40.72;46.60;;
66589;Laerm;53447;49.272;11.070;2023-12-20T02:25:18;42.94;41.15;48.81;;
66589;Laerm;53447;49.272;11.070;2023-12-20T02:27:43;42.78;40.72;51.40;;
66589;Laerm;53447;49.272;11.070;2023-12-20T02:30:09;42.80;40.72;47.94;;
66589;Laerm;53447;49.272;11.070;2023-12-20T02:32:35;43.03;41.43;51.86;;
66589;Laerm;53447;49.272;11.070;2023-12-20T02:35:00;43.07;41.21;48.91;;
66589;Laerm;53447;49.272;11.070;2023-12-20T02:37:25;42.73;40.79;50.06;;
66589;Laerm;53447;49.272;11.070;2023-12-20T02:39:50;43.19;40.85;56.65;;
66589;Laerm;53447;49.272;11.070;2023-12-20T02:42:15;44.75;41.38;57.40;;
66589;Laerm;53447;49.272;11.070;2023-12-20T02:44:41;44.72;41.48;58.80;;
66589;Laerm;53447;49.272;11.070;2023-12-20T02:47:06;42.94;40.91;50.12;;
66589;Laerm;53447;49.272;11.070;2023-12-20T02:49:31;43.04;40.91;52.02;;
66589;Laerm;53447;49.272;11.070;2023-12-20T02:51:56;42.96;40.53;48.78;;
66589;Laerm;53447;49.272;11.070;2023-12-20T02:54:22;43.09;41.43;50.43;;
66589;Laerm;53447;49.272;11.070;2023-12-20T02:56:47;43.16;40.97;51.69;;
66589;Laerm;53447;49.272;11.070;2023-12-20T02:59:12;47.42;41.26;67.77;;
66589;Laerm;53447;49.272;11.070;2023-12-20T03:01:44;43.59;40.66;51.87;;
66589;Laerm;53447;49.272;11.070;2023-12-20T03:04:10;42.93;40.32;55.25;;
66589;Laerm;53447;49.272;11.070;2023-12-20T03:06:36;43.17;40.39;51.95;;
66589;Laerm;53447;49.272;11.070;2023-12-20T03:09:01;44.64;40.97;61.70;;
66589;Laerm;53447;49.272;11.070;2023-12-20T03:11:26;44.33;40.79;61.14;;
66589;Laerm;53447;49.272;11.070;2023-12-20T03:13:52;48.11;40.11;67.77;;
66589;Laerm;53447;49.272;11.070;2023-12-20T03:16:17;42.68;40.11;48.16;;
66589;Laerm;53447;49.272;11.070;2023-12-20T03:18:42;46.60;39.56;72.10;;
66589;Laerm;53447;49.272;11.070;2023-12-20T03:21:08;43.19;40.11;58.05;;
66589;Laerm;53447;49.272;11.070;2023-12-20T03:23:33;42.45;40.32;50.32;;
66589;Laerm;53447;49.272;11.070;2023-12-20T03:25:59;41.84;39.12;48.60;;
66589;Laerm;53447;49.272;11.070;2023-12-20T03:28:24;42.54;38.08;52.45;;
66589;Laerm;53447;49.272;11.070;2023-12-20T03:30:50;43.32;38.53;54.80;;
66589;Laerm;53447;49.272;11.070;2023-12-20T03:33:15;41.82;37.31;48.23;;
66589;Laerm;53447;49.272;11.070;2023-12-20T03:35:40;41.99;37.31;45.28;;
66589;Laerm;53447;49.272;11.070;2023-12-20T03:38:05;42.96;35.62;52.99;;
66589;Laerm;53447;49.272;11.070;2023-12-20T03:40:31;42.80;38.83;47.24;;
66589;Laerm;53447;49.272;11.070;2023-12-20T03:42:56;42.24;37.71;43.77;;
66589;Laerm;53447;49.272;11.070;2023-12-20T03:45:21;42.38;38.73;53.52;;
66589;Laerm;53447;49.272;11.070;2023-12-20T03:47:46;43.55;38.63;54.77;;
66589;Laerm;53447;49.272;11.070;2023-12-20T03:50:12;44.20;40.03;52.45;;
66589;Laerm;53447;49.272;11.070;2023-12-20T03:52:37;42.22;40.03;49.33;;
66589;Laerm;53447;49.272;11.070;2023-12-20T03:55:03;42.72;39.56;55.96;;
66589;Laerm;53447;49.272;11.070;2023-12-20T03:57:28;43.05;40.32;54.94;;
66589;Laerm;53447;49.272;11.070;2023-12-20T03:59:53;42.88;40.18;52.09;;
66589;Laerm;53447;49.272;11.070;2023-12-20T04:02:18;42.50;39.30;49.54;;
66589;Laerm;53447;49.272;11.070;2023-12-20T04:04:44;42.21;37.31;51.36;;
66589;Laerm;53447;49.272;11.070;2023-12-20T04:07:09;42.90;38.31;48.58;;
66589;Laerm;53447;49.272;11.070;2023-12-20T04:09:34;45.31;38.73;72.83;;
66589;Laerm;53447;49.272;11.070;2023-12-20T04:11:59;42.25;37.58;49.71;;
66589;Laerm;53447;49.272;11.070;2023-12-20T04:14:25;43.03;39.96;49.56;;
66589;Laerm;53447;49.272;11.070;2023-12-20T04:16:50;44.80;41.09;55.64;;
66589;Laerm;53447;49.272;11.070;2023-12-20T04:19:15;43.60;41.69;47.48;;
66589;Laerm;53447;49.272;11.070;2023-12-20T04:21:40;44.15;41.26;51.30;;
66589;Laerm;53447;49.272;11.070;2023-12-20T04:24:05;42.98;39.80;47.17;;
66589;Laerm;53447;49.272;11.070;2023-12-20T04:26:31;42.71;38.42;47.49;;
66589;Laerm;53447;49.272;11.070;2023-12-20T04:28:56;42.35;40.46;52.49;;
66589;Laerm;53447;49.272;11.070;2023-12-20T04:31:21;42.22;40.03;45.57;;
66589;Laerm;53447;49.272;11.070;2023-12-20T04:33:46;42.58;38.31;46.87;;
66589;Laerm;53447;49.272;11.070;2023-12-20T04:36:12;45.19;38.83;67.41;;
66589;Laerm;53447;49.272;11.070;2023-12-20T04:38:37;42.36;39.12;47.94;;
66589;Laerm;53447;49.272;11.070;2023-12-20T04:41:02;43.02;38.31;60.29;;
66589;Laerm;53447;49.272;11.070;2023-12-20T04:43:27;42.55;39.12;49.08;;
66589;Laerm;53447;49.272;11.070;2023-12-20T04:45:54;47.30;38.83;62.77;;
66589;Laerm;53447;49.272;11.070;2023-12-20T04:48:19;42.94;38.08;49.12;;
66589;Laerm;53447;49.272;11.070;2023-12-20T04:50:45;42.33;39.03;47.47;;
66589;Laerm;53447;49.272;11.070;2023-12-20T04:53:10;42.49;38.93;51.56;;
66589;Laerm;53447;49.272;11.070;2023-12-20T04:55:35;42.65;38.53;54.07;;
66589;Laerm;53447;49.272;11.070;2023-12-20T04:58:01;52.27;39.39;71.49;;
66589;Laerm;53447;49.272;11.070;2023-12-20T05:00:26;53.33;41.03;71.40;;
66589;Laerm;53447;49.272;11.070;2023-12-20T05:02:52;44.97;41.64;52.29;;
66589;Laerm;53447;49.272;11.070;2023-12-20T05:05:17;42.50;40.11;48.72;;
66589;Laerm;53447;49.272;11.070;2023-12-20T05:07:43;42.36;39.03;48.84;;
66589;Laerm;53447;49.272;11.070;2023-12-20T05:10:08;42.39;38.83;47.24;;
66589;Laerm;53447;49.272;11.070;2023-12-20T05:12:34;46.18;39.30;57.88;;
66589;Laerm;53447;49.272;11.070;2023-12-20T05:14:59;42.13;35.82;47.82;;
66589;Laerm;53447;49.272;11.070;2023-12-20T05:17:25;41.82;37.71;52.30;;
66589;Laerm;53447;49.272;11.070;2023-12-20T05:19:50;42.90;39.03;58.01;;
66589;Laerm;53447;49.272;11.070;2023-12-20T05:22:15;53.70;37.96;71.94;;
66589;Laerm;53447;49.272;11.070;2023-12-20T05:24:41;42.70;38.93;53.31;;
66589;Laerm;53447;49.272;11.070;2023-12-20T05:27:06;53.53;39.88;70.29;;
66589;Laerm;53447;49.272;11.070;2023-12-20T05:29:32;47.79;37.31;63.44;;
66589;Laerm;53447;49.272;11.070;2023-12-20T05:31:58;42.05;37.45;45.05;;
66589;Laerm;53447;49.272;11.070;2023-12-20T05:34:23;41.89;37.71;47.40;;
66589;Laerm;53447;49.272;11.070;2023-12-20T05:36:49;43.04;39.72;53.14;;
66589;Laerm;53447;49.272;11.070;2023-12-20T05:39:14;45.36;40.03;59.29;;
66589;Laerm;53447;49.272;11.070;2023-12-20T05:41:39;51.56;39.48;69.70;;
66589;Laerm;53447;49.272;11.070;2023-12-20T05:44:05;43.87;38.20;65.53;;
66589;Laerm;53447;49.272;11.070;2023-12-20T05:46:30;53.51;39.12;71.80;;
66589;Laerm;53447;49.272;11.070;2023-12-20T05:48:55;42.53;38.20;57.32;;
66589;Laerm;53447;49.272;11.070;2023-12-20T05:51:20;42.08;38.31;47.74;;
66589;Laerm;53447;49.272;11.070;2023-12-20T05:53:46;49.89;37.17;66.25;;
66589;Laerm;53447;49.272;11.070;2023-12-20T05:56:11;42.35;37.31;55.96;;
66589;Laerm;53447;49.272;11.070;2023-12-20T05:58:36;42.54;39.30;49.19;;
66589;Laerm;53447;49.272;11.070;2023-12-20T06:01:04;51.44;38.63;70.15;;
66589;Laerm;53447;49.272;11.070;2023-12-20T06:03:30;50.38;38.31;69.03;;
66589;Laerm;53447;49.272;11.070;2023-12-20T06:05:55;44.84;39.03;68.40;;
66589;Laerm;53447;49.272;11.070;2023-12-20T06:08:20;53.06;40.32;72.86;;
66589;Laerm;53447;49.272;11.070;2023-12-20T06:10:46;43.66;39.72;55.83;;
66589;Laerm;53447;49.272;11.070;2023-12-20T06:13:11;44.80;40.53;61.25;;
66589;Laerm;53447;49.272;11.070;2023-12-20T06:15:38;53.23;40.25;69.54;;
66589;Laerm;53447;49.272;11.070;2023-12-20T06:18:03;42.72;40.03;49.29;;
66589;Laerm;53447;49.272;11.070;2023-12-20T06:20:28;52.58;40.91;70.57;;
66589;Laerm;53447;49.272;11.070;2023-12-20T06:22:53;51.87;41.09;70.10;;
66589;Laerm;53447;49.272;11.070;2023-12-20T06:25:19;43.13;40.59;56.70;;
66589;Laerm;53447;49.272;11.070;2023-12-20T06:27:44;50.22;40.79;67.62;;
66589;Laerm;53447;49.272;11.070;2023-12-20T06:30:09;53.42;41.15;70.14;;
66589;Laerm;53447;49.272;11.070;2023-12-20T06:32:35;42.14;37.96;53.29;;
66589;Laerm;53447;49.272;11.070;2023-12-20T06:35:00;42.52;37.58;61.10;;
66589;Laerm;53447;49.272;11.070;2023-12-20T06:37:25;57.02;38.08;74.72;;
66589;Laerm;53447;49.272;11.070;2023-12-20T06:39:50;45.26;39.72;63.72;;
66589;Laerm;53447;49.272;11.070;2023-12-20T06:42:16;52.48;40.79;70.78;;
66589;Laerm;53447;49.272;11.070;2023-12-20T06:44:41;42.66;39.48;49.56;;
66589;Laerm;53447;49.272;11.070;2023-12-20T06:47:06;52.47;39.12;71.01;;
66589;Laerm;53447;49.272;11.070;2023-12-20T06:49:31;50.96;39.03;68.94;;
66589;Laerm;53447;49.272;11.070;2023-12-20T06:51:57;42.79;38.42;57.24;;
66589;Laerm;53447;49.272;11.070;2023-12-20T06:54:22;53.67;38.93;72.59;;
66589;Laerm;53447;49.272;11.070;2023-12-20T06:56:47;46.09;39.64;69.51;;
66589;Laerm;53447;49.272;11.070;2023-12-20T06:59:12;48.61;39.80;60.87;;
66589;Laerm;53447;49.272;11.070;2023-12-20T07:01:37;53.71;39.56;70.45;;
66589;Laerm;53447;49.272;11.070;2023-12-20T07:04:03;50.26;40.39;62.87;;
66589;Laerm;53447;49.272;11.070;2023-12-20T07:06:28;56.63;40.11;72.98;;
66589;Laerm;53447;49.272;11.070;2023-12-20T07:08:53;54.38;39.39;72.09;;
66589;Laerm;53447;49.272;11.070;2023-12-20T07:11:19;54.38;40.18;69.68;;
66589;Laerm;53447;49.272;11.070;2023-12-20T07:13:44;51.85;40.11;67.14;;
66589;Laerm;53447;49.272;11.070;2023-12-20T07:16:09;52.08;39.12;68.41;;
66589;Laerm;53447;49.272;11.070;2023-12-20T07:18:34;43.37;38.42;55.77;;
66589;Laerm;53447;49.272;11.070;2023-12-20T07:20:59;50.70;39.48;68.08;;
66589;Laerm;53447;49.272;11.070;2023-12-20T07:23:25;52.12;39.39;68.07;;
66589;Laerm;53447;49.272;11.070;2023-12-20T07:25:51;50.81;38.93;69.78;;
66589;Laerm;53447;49.272;11.070;2023-12-20T07:28:16;47.42;39.03;66.12;;
66589;Laerm;53447;49.272;11.070;2023-12-20T07:30:42;42.40;38.08;49.77;;
66589;Laerm;53447;49.272;11.070;2023-12-20T07:33:07;42.54;38.28;51.46;;
66589;Laerm;53447;49.272;11.070;2023-12-20T07:35:34;46.21;39.39;68.18;;
66589;Laerm;53447;49.272;11.070;2023-12-20T07:37:59;54.61;40.91;69.80;;
66589;Laerm;53447;49.272;11.070;2023-12-20T07:40:24;53.76;39.88;70.75;;
66589;Laerm;53447;49.272;11.070;2023-12-20T07:42:49;54.48;40.53;71.37;;
66589;Laerm;53447;49.272;11.070;2023-12-20T07:45:14;52.42;40.03;66.07;;
66589;Laerm;53447;49.272;11.070;2023-12-20T07:47:40;50.24;41.21;64.63;;
66589;Laerm;53447;49.272;11.070;2023-12-20T07:50:06;47.37;40.79;65.74;;
66589;Laerm;53447;49.272;11.070;2023-12-20T07:52:31;52.25;40.72;70.35;;
66589;Laerm;53447;49.272;11.070;2023-12-20T07:54:56;52.51;39.80;70.48;;
66589;Laerm;53447;49.272;11.070;2023-12-20T07:57:21;53.63;41.15;72.46;;
66589;Laerm;53447;49.272;11.070;2023-12-20T07:59:47;43.00;40.72;53.13;;
66589;Laerm;53447;49.272;11.070;2023-12-20T08:02:12;50.89;40.56;67.01;;
66589;Laerm;53447;49.272;11.070;2023-12-20T08:04:37;51.19;40.66;68.82;;
66589;Laerm;53447;49.272;11.070;2023-12-20T08:07:03;43.28;40.72;57.65;;
66589;Laerm;53447;49.272;11.070;2023-12-20T08:09:28;54.13;40.18;71.14;;
66589;Laerm;53447;49.272;11.070;2023-12-20T08:11:53;43.75;40.46;62.32;;
66589;Laerm;53447;49.272;11.070;2023-12-20T08:14:19;54.36;41.03;69.37;;
66589;Laerm;53447;49.272;11.070;2023-12-20T08:16:44;43.98;40.79;57.38;;
66589;Laerm;53447;49.272;11.070;2023-12-20T08:19:09;44.76;40.59;58.96;;
66589;Laerm;53447;49.272;11.070;2023-12-20T08:21:34;50.13;39.30;68.33;;
66589;Laerm;53447;49.272;11.070;2023-12-20T08:24:00;43.45;40.72;57.52;;
66589;Laerm;53447;49.272;11.070;2023-12-20T08:26:28;53.52;39.56;71.80;;
66589;Laerm;53447;49.272;11.070;2023-12-20T08:28:53;51.18;40.03;68.57;;
66589;Laerm;53447;49.272;11.070;2023-12-20T08:31:18;45.79;38.53;68.69;;
66589;Laerm;53447;49.272;11.070;2023-12-20T08:33:44;51.95;39.56;68.65;;
66589;Laerm;53447;49.272;11.070;2023-12-20T08:36:10;43.80;38.20;59.50;;
66589;Laerm;53447;49.272;11.070;2023-12-20T08:38:35;52.07;38.73;70.29;;
66589;Laerm;53447;49.272;11.070;2023-12-20T08:41:00;43.82;40.72;59.99;;
66589;Laerm;53447;49.272;11.070;2023-12-20T08:43:26;42.93;39.80;54.62;;
66589;Laerm;53447;49.272;11.070;2023-12-20T08:45:51;43.31;38.93;60.29;;
66589;Laerm;53447;49.272;11.070;2023-12-20T08:48:17;43.44;39.21;59.29;;
66589;Laerm;53447;49.272;11.070;2023-12-20T08:50:42;42.50;37.96;48.84;;
66589;Laerm;53447;49.272;11.070;2023-12-20T08:53:08;53.01;40.18;67.97;;
66589;Laerm;53447;49.272;11.070;2023-12-20T08:55:33;43.54;39.96;60.33;;
66589;Laerm;53447;49.272;11.070;2023-12-20T08:57:59;45.18;38.93;56.56;;
66589;Laerm;53447;49.272;11.070;2023-12-20T09:00:24;49.18;40.59;65.40;;
66589;Laerm;53447;49.272;11.070;2023-12-20T09:02:52;54.51;39.56;72.62;;
66589;Laerm;53447;49.272;11.070;2023-12-20T09:05:17;42.49;38.20;51.25;;
66589;Laerm;53447;49.272;11.070;2023-12-20T09:07:42;42.92;37.84;52.32;;
66589;Laerm;53447;49.272;11.070;2023-12-20T09:10:08;42.32;36.55;54.34;;
66589;Laerm;53447;49.272;11.070;2023-12-20T09:12:33;42.45;37.17;51.89;;
66589;Laerm;53447;49.272;11.070;2023-12-20T09:14:58;42.02;36.71;54.86;;
66589;Laerm;53447;49.272;11.070;2023-12-20T09:17:24;42.72;38.93;50.20;;
66589;Laerm;53447;49.272;11.070;2023-12-20T09:19:49;50.78;39.03;68.18;;
66589;Laerm;53447;49.272;11.070;2023-12-20T09:22:14;48.42;39.56;65.84;;
66589;Laerm;53447;49.272;11.070;2023-12-20T09:24:40;45.24;38.73;62.14;;
66589;Laerm;53447;49.272;11.070;2023-12-20T09:27:05;45.41;37.96;64.43;;
66589;Laerm;53447;49.272;11.070;2023-12-20T09:29:31;42.77;38.31;57.18;;
66589;Laerm;53447;49.272;11.070;2023-12-20T09:31:56;42.04;37.71;50.98;;
66589;Laerm;53447;49.272;11.070;2023-12-20T09:34:22;52.26;36.87;70.08;;
66589;Laerm;53447;49.272;11.070;2023-12-20T09:36:47;50.69;38.53;69.77;;
66589;Laerm;53447;49.272;11.070;2023-12-20T09:39:13;43.24;39.30;58.10;;
66589;Laerm;53447;49.272;11.070;2023-12-20T09:41:40;43.08;37.58;54.33;;
66589;Laerm;53447;49.272;11.070;2023-12-20T09:44:07;51.46;38.31;70.29;;
66589;Laerm;53447;49.272;11.070;2023-12-20T09:46:33;42.29;38.53;54.73;;
66589;Laerm;53447;49.272;11.070;2023-12-20T09:49:00;43.96;37.45;57.04;;
66589;Laerm;53447;49.272;11.070;2023-12-20T09:51:26;44.60;38.20;62.19;;
66589;Laerm;53447;49.272;11.070;2023-12-20T09:53:52;42.01;38.53;53.35;;
66589;Laerm;53447;49.272;11.070;2023-12-20T09:56:19;50.19;39.30;67.70;;
66589;Laerm;53447;49.272;11.070;2023-12-20T09:58:44;47.90;39.56;62.95;;
66589;Laerm;53447;49.272;11.070;2023-12-20T10:01:10;52.44;38.20;70.90;;
66589;Laerm;53447;49.272;11.070;2023-12-20T10:03:35;43.53;37.96;65.13;;
66589;Laerm;53447;49.272;11.070;2023-12-20T10:06:05;43.66;37.31;62.97;;
66589;Laerm;53447;49.272;11.070;2023-12-20T10:08:31;42.28;36.20;57.55;;
66589;Laerm;53447;49.272;11.070;2023-12-20T10:10:57;55.06;36.71;74.25;;
66589;Laerm;53447;49.272;11.070;2023-12-20T10:13:27;56.67;36.55;76.51;;
66589;Laerm;53447;49.272;11.070;2023-12-20T10:15:52;44.52;35.41;66.07;;
66589;Laerm;53447;49.272;11.070;2023-12-20T10:18:17;45.09;37.84;57.55;;
66589;Laerm;53447;49.272;11.070;2023-12-20T10:20:42;53.19;37.71;72.31;;
66589;Laerm;53447;49.272;11.070;2023-12-20T10:23:08;52.83;38.20;71.96;;
66589;Laerm;53447;49.272;11.070;2023-12-20T10:25:33;43.45;37.31;63.01;;
66589;Laerm;53447;49.272;11.070;2023-12-20T10:28:09;51.18;35.82;68.41;;
66589;Laerm;53447;49.272;11.070;2023-12-20T10:30:34;45.24;37.96;66.61;;
66589;Laerm;53447;49.272;11.070;2023-12-20T10:32:59;46.21;38.20;62.57;;
66589;Laerm;53447;49.272;11.070;2023-12-20T10:35:24;41.73;37.10;54.56;;
66589;Laerm;53447;49.272;11.070;2023-12-20T10:37:50;47.75;39.56;64.39;;
66589;Laerm;53447;49.272;11.070;2023-12-20T10:40:17;60.10;39.39;79.27;;
66589;Laerm;53447;49.272;11.070;2023-12-20T10:42:42;46.94;38.53;67.39;;
66589;Laerm;53447;49.272;11.070;2023-12-20T10:45:07;45.68;38.08;59.55;;
66589;Laerm;53447;49.272;11.070;2023-12-20T10:47:33;45.54;37.31;58.98;;
66589;Laerm;53447;49.272;11.070;2023-12-20T10:49:59;43.88;36.38;57.86;;
66589;Laerm;53447;49.272;11.070;2023-12-20T10:52:26;42.10;37.02;56.38;;
66589;Laerm;53447;49.272;11.070;2023-12-20T10:54:52;48.31;37.84;64.62;;
66589;Laerm;53447;49.272;11.070;2023-12-20T10:57:18;51.29;38.63;67.91;;
66589;Laerm;53447;49.272;11.070;2023-12-20T10:59:43;49.47;37.84;67.63;;
66589;Laerm;53447;49.272;11.070;2023-12-20T11:02:10;51.52;41.74;67.07;;
66589;Laerm;53447;49.272;11.070;2023-12-20T11:04:40;48.65;40.25;62.57;;
66589;Laerm;53447;49.272;11.070;2023-12-20T11:07:15;54.80;36.55;73.30;;
66589;Laerm;53447;49.272;11.070;2023-12-20T11:09:43;42.96;37.02;55.65;;
66589;Laerm;53447;49.272;11.070;2023-12-20T11:12:16;41.93;36.71;52.85;;
66589;Laerm;53447;49.272;11.070;2023-12-20T11:14:47;50.65;37.17;68.64;;
66589;Laerm;53447;49.272;11.070;2023-12-20T11:17:13;42.81;37.17;65.16;;
66589;Laerm;53447;49.272;11.070;2023-12-20T11:22:21;51.11;37.58;69.52;;
66589;Laerm;53447;49.272;11.070;2023-12-20T11:24:47;43.83;38.83;57.96;;
66589;Laerm;53447;49.272;11.070;2023-12-20T11:27:13;51.23;36.20;68.38;;
66589;Laerm;53447;49.272;11.070;2023-12-20T11:29:38;52.84;37.02;71.46;;
66589;Laerm;53447;49.272;11.070;2023-12-20T11:32:50;44.42;38.93;56.69;;
66589;Laerm;53447;49.272;11.070;2023-12-20T11:34:50;52.80;39.88;71.41;;
66589;Laerm;53447;49.272;11.070;2023-12-20T11:37:16;42.99;37.71;52.11;;
66589;Laerm;53447;49.272;11.070;2023-12-20T11:39:42;42.78;37.45;61.61;;
66589;Laerm;53447;49.272;11.070;2023-12-20T11:42:07;50.94;41.09;69.28;;
66589;Laerm;53447;49.272;11.070;2023-12-20T11:44:35;54.36;38.08;72.38;;
66589;Laerm;53447;49.272;11.070;2023-12-20T11:47:01;44.68;37.84;65.42;;
66589;Laerm;53447;49.272;11.070;2023-12-20T11:49:26;43.39;37.96;64.28;;
66589;Laerm;53447;49.272;11.070;2023-12-20T11:51:54;54.33;38.73;67.68;;
66589;Laerm;53447;49.272;11.070;2023-12-20T11:54:19;53.90;39.56;71.86;;
66589;Laerm;53447;49.272;11.070;2023-12-20T11:56:45;42.06;38.73;50.45;;
66589;Laerm;53447;49.272;11.070;2023-12-20T11:59:10;48.05;37.84;76.10;;
66589;Laerm;53447;49.272;11.070;2023-12-20T12:01:36;42.67;39.48;54.39;;
66589;Laerm;53447;49.272;11.070;2023-12-20T12:04:02;43.25;37.17;55.21;;
66589;Laerm;53447;49.272;11.070;2023-12-20T12:06:27;51.80;37.45;70.74;;
66589;Laerm;53447;49.272;11.070;2023-12-20T12:08:52;52.28;38.42;67.05;;
66589;Laerm;53447;49.272;11.070;2023-12-20T12:11:19;44.24;37.96;56.73;;
66589;Laerm;53447;49.272;11.070;2023-12-20T12:13:44;47.00;39.72;58.53;;
66589;Laerm;53447;49.272;11.070;2023-12-20T12:16:09;54.60;40.53;69.21;;
66589;Laerm;53447;49.272;11.070;2023-12-20T12:18:35;51.83;41.15;67.07;;
66589;Laerm;53447;49.272;11.070;2023-12-20T12:21:01;54.12;40.91;71.14;;
66589;Laerm;53447;49.272;11.070;2023-12-20T12:23:27;52.27;39.64;67.00;;
66589;Laerm;53447;49.272;11.070;2023-12-20T12:25:52;48.52;40.03;64.36;;
66589;Laerm;53447;49.272;11.070;2023-12-20T12:28:18;46.19;39.03;59.77;;
66589;Laerm;53447;49.272;11.070;2023-12-20T12:30:55;42.49;36.55;62.42;;
66589;Laerm;53447;49.272;11.070;2023-12-20T12:33:20;42.20;36.71;59.52;;
66589;Laerm;53447;49.272;11.070;2023-12-20T12:35:46;55.57;37.24;70.98;;
66589;Laerm;53447;49.272;11.070;2023-12-20T12:38:12;45.30;36.38;62.19;;
66589;Laerm;53447;49.272;11.070;2023-12-20T12:40:38;47.41;38.53;64.95;;
66589;Laerm;53447;49.272;11.070;2023-12-20T12:43:03;46.86;37.45;61.21;;
66589;Laerm;53447;49.272;11.070;2023-12-20T12:45:29;50.31;37.02;68.22;;
66589;Laerm;53447;49.272;11.070;2023-12-20T12:47:54;45.24;38.58;59.42;;
66589;Laerm;53447;49.272;11.070;2023-12-20T12:50:20;52.14;37.02;71.05;;
66589;Laerm;53447;49.272;11.070;2023-12-20T12:52:46;52.14;36.55;69.73;;
66589;Laerm;53447;49.272;11.070;2023-12-20T12:55:12;44.64;36.71;68.36;;
66589;Laerm;53447;49.272;11.070;2023-12-20T12:57:37;48.42;37.58;65.53;;
66589;Laerm;53447;49.272;11.070;2023-12-20T13:00:02;55.07;38.31;72.76;;
66589;Laerm;53447;49.272;11.070;2023-12-20T13:02:28;49.96;37.96;73.52;;
66589;Laerm;53447;49.272;11.070;2023-12-20T13:04:53;41.84;36.87;58.80;;
66589;Laerm;53447;49.272;11.070;2023-12-20T13:07:18;43.82;36.87;60.46;;
66589;Laerm;53447;49.272;11.070;2023-12-20T13:09:44;52.97;37.71;67.95;;
66589;Laerm;53447;49.272;11.070;2023-12-20T13:12:09;48.17;36.71;68.91;;
66589;Laerm;53447;49.272;11.070;2023-12-20T13:14:34;50.76;37.58;68.80;;
66589;Laerm;53447;49.272;11.070;2023-12-20T13:17:01;52.91;39.64;76.55;;
66589;Laerm;53447;49.272;11.070;2023-12-20T13:19:27;49.75;40.46;62.09;;
66589;Laerm;53447;49.272;11.070;2023-12-20T13:21:53;47.91;40.66;61.84;;
66589;Laerm;53447;49.272;11.070;2023-12-20T13:24:18;51.43;42.89;63.68;;
66589;Laerm;53447;49.272;11.070;2023-12-20T13:26:43;61.61;42.08;81.18;;